Time;durP1;ratioP1;P1;durP2;ratioP2;P2;SDS_P1;SDS_P2;PMS_P1;PMS_P2;Temp;Humidity;BMP_temperature;BMP_pressure;BME280_temperature;BME280_humidity;BME280_pressure;Samples;Min_cycle;Max_cycle;Signal;HPM_P1;HPM_P2
2021/12/26 00:00:18;;;;;;;38.48;17.35;;;;;;;-9.02;76.69;100325.66;3463660;79;20910;-72
2021/12/26 00:05:11;;;;;;;34.05;14.33;;;;;;;-8.95;76.73;100320.78;3513717;79;21554;-72
2021/12/26 00:10:05;;;;;;;32.85;15.45;;;;;;;-8.91;76.63;100327.47;3437389;81;21407;-72
2021/12/26 00:14:57;;;;;;;36.63;17.00;;;;;;;-8.86;76.51;100317.42;3489022;79;21227;-72
2021/12/26 00:19:48;;;;;;;35.28;16.93;;;;;;;-8.80;76.45;100321.23;3467582;80;21856;-72
2021/12/26 00:24:39;;;;;;;38.88;17.45;;;;;;;-8.80;76.25;100320.84;3488993;79;20956;-72
2021/12/26 00:29:30;;;;;;;47.15;17.30;;;;;;;-8.92;75.90;100327.36;3544259;80;20990;-72
2021/12/26 00:34:21;;;;;;;48.20;20.35;;;;;;;-9.04;75.85;100334.33;3499018;80;20954;-71
2021/12/26 00:39:15;;;;;;;39.08;18.77;;;;;;;-9.05;76.00;100336.71;3520737;79;20947;-72
2021/12/26 00:44:09;;;;;;;40.60;17.02;;;;;;;-9.11;75.87;100338.31;3494620;79;21456;-74
2021/12/26 00:49:00;;;;;;;40.15;16.93;;;;;;;-9.13;75.57;100337.69;3484173;80;21041;-72
2021/12/26 00:53:51;;;;;;;39.58;18.67;;;;;;;-9.16;75.59;100331.11;3508826;79;20970;-73
2021/12/26 00:58:42;;;;;;;39.92;17.37;;;;;;;-9.16;76.02;100332.37;3513171;79;20939;-73
2021/12/26 01:03:34;;;;;;;35.17;16.15;;;;;;;-9.19;75.81;100329.22;3499573;79;26957;-72
2021/12/26 01:08:30;;;;;;;37.42;15.18;;;;;;;-9.19;75.73;100332.99;3511803;79;21358;-73
2021/12/26 01:13:28;;;;;;;39.10;15.60;;;;;;;-9.19;75.79;100325.44;3522242;79;20892;-73
2021/12/26 01:18:17;;;;;;;36.23;16.37;;;;;;;-9.09;76.37;100332.16;3549507;79;20982;-73
2021/12/26 01:23:13;;;;;;;30.52;14.00;;;;;;;-9.05;76.18;100340.48;3478488;79;21032;-73
2021/12/26 01:28:06;;;;;;;33.18;15.08;;;;;;;-9.01;76.91;100337.52;3497603;79;21074;-73
2021/12/26 01:32:57;;;;;;;31.27;13.30;;;;;;;-8.84;76.83;100346.53;3484935;79;21158;-73
2021/12/26 01:37:52;;;;;;;35.03;13.22;;;;;;;-8.84;76.92;100339.85;3498565;81;20950;-73
2021/12/26 01:43:04;;;;;;;29.55;13.35;;;;;;;-8.86;76.75;100336.32;3503138;79;20970;-73
2021/12/26 01:48:05;;;;;;;32.13;15.55;;;;;;;-8.89;76.50;100344.89;3483701;79;20961;-74
2021/12/26 01:52:59;;;;;;;31.33;12.73;;;;;;;-8.88;76.81;100347.91;3503956;79;21088;-73
2021/12/26 01:57:54;;;;;;;35.25;14.30;;;;;;;-8.93;76.60;100347.88;3462202;79;22665;-73
2021/12/26 02:02:45;;;;;;;31.52;14.70;;;;;;;-8.86;77.17;100350.17;3477161;79;20988;-73
2021/12/26 02:07:37;;;;;;;26.73;12.03;;;;;;;-8.70;77.22;100347.75;3470515;79;21411;-73
2021/12/26 02:12:28;;;;;;;31.87;14.73;;;;;;;-8.57;77.51;100346.78;3473721;81;20977;-73
2021/12/26 02:17:19;;;;;;;30.12;11.93;;;;;;;-8.49;77.28;100355.91;3439239;79;26977;-72
2021/12/26 02:22:15;;;;;;;28.52;13.85;;;;;;;-8.47;77.47;100344.31;3465554;79;21855;-73
2021/12/26 02:32:15;;;;;;;25.82;13.58;;;;;;;-8.52;77.20;100336.73;3418170;81;21444;-73
2021/12/26 02:37:06;;;;;;;27.05;13.38;;;;;;;-8.57;77.15;100335.44;3450434;80;20990;-72
2021/12/26 02:41:58;;;;;;;25.08;13.72;;;;;;;-8.60;77.00;100340.24;3489830;80;27020;-72
2021/12/26 02:46:51;;;;;;;31.17;13.10;;;;;;;-8.59;77.36;100348.68;3477602;80;21161;-72
2021/12/26 02:51:42;;;;;;;30.80;13.70;;;;;;;-8.59;77.26;100344.52;3415497;80;20923;-73
2021/12/26 02:56:34;;;;;;;33.20;14.00;;;;;;;-8.63;77.31;100360.13;3413417;80;21004;-73
2021/12/26 03:01:29;;;;;;;31.12;12.23;;;;;;;-8.59;77.65;100367.59;3437252;81;20955;-73
2021/12/26 03:06:30;;;;;;;25.00;12.82;;;;;;;-8.58;77.57;100368.08;3434920;80;20932;-73
2021/12/26 03:11:16;;;;;;;23.60;12.47;;;;;;;-8.63;77.14;100367.70;3466042;82;21035;-72
2021/12/26 03:16:08;;;;;;;25.02;11.45;;;;;;;-8.63;77.46;100365.17;3426524;80;21484;-73
2021/12/26 03:20:59;;;;;;;26.93;11.48;;;;;;;-8.63;77.47;100359.75;3402848;80;20903;-72
2021/12/26 03:25:56;;;;;;;29.60;12.75;;;;;;;-8.64;77.51;100355.83;3429420;80;24213;-73
2021/12/26 03:30:47;;;;;;;22.42;10.30;;;;;;;-8.52;77.85;100354.38;3495300;79;20930;-71
2021/12/26 03:35:40;;;;;;;30.65;11.93;;;;;;;-8.47;77.83;100359.45;3503141;81;21089;-72
2021/12/26 03:40:32;;;;;;;23.20;11.55;;;;;;;-8.45;77.50;100351.63;3444924;80;21579;-73
2021/12/26 03:45:24;;;;;;;29.25;12.13;;;;;;;-8.41;77.47;100353.13;3442743;80;21009;-72
2021/12/26 03:50:19;;;;;;;28.45;11.90;;;;;;;-8.42;77.29;100357.69;3498624;80;20983;-72
2021/12/26 03:55:10;;;;;;;26.20;10.80;;;;;;;-8.46;77.15;100356.19;3475802;80;21460;-72
2021/12/26 04:00:06;;;;;;;22.67;11.10;;;;;;;-8.51;77.06;100360.30;3470960;80;21949;-72
2021/12/26 04:04:59;;;;;;;29.02;12.65;;;;;;;-8.58;76.80;100373.12;3427550;80;21384;-71
2021/12/26 04:09:50;;;;;;;26.25;10.98;;;;;;;-8.68;76.73;100376.48;3509565;80;21025;-71
2021/12/26 04:14:41;;;;;;;30.85;12.00;;;;;;;-8.72;76.85;100371.94;3489718;81;22288;-72
2021/12/26 04:19:32;;;;;;;23.75;11.25;;;;;;;-8.77;76.82;100371.91;3510968;80;22286;-72
2021/12/26 04:24:23;;;;;;;29.35;11.80;;;;;;;-8.84;76.76;100368.83;3476770;79;21205;-72
2021/12/26 04:29:14;;;;;;;30.68;13.60;;;;;;;-8.92;76.51;100381.15;3500634;79;20959;-72
2021/12/26 04:34:06;;;;;;;29.72;12.95;;;;;;;-8.97;76.79;100383.63;3404235;79;20943;-72
2021/12/26 04:38:58;;;;;;;31.55;14.75;;;;;;;-9.07;76.54;100374.73;3428287;79;20967;-72
2021/12/26 04:43:50;;;;;;;29.23;12.37;;;;;;;-9.15;76.50;100380.75;3524410;79;20963;-72
2021/12/26 04:48:58;;;;;;;22.25;11.15;;;;;;;-9.20;76.54;100382.45;3484306;79;21081;-72
2021/12/26 04:53:49;;;;;;;26.68;12.18;;;;;;;-9.21;76.54;100388.61;3482194;79;21042;-72
2021/12/26 04:58:41;;;;;;;23.42;11.43;;;;;;;-9.28;76.15;100392.58;3464459;79;21425;-72
2021/12/26 05:03:33;;;;;;;24.50;11.77;;;;;;;-9.39;76.13;100386.58;3487167;80;21896;-73
2021/12/26 05:08:24;;;;;;;27.37;11.30;;;;;;;-9.48;75.88;100393.30;3547734;79;21010;-72
2021/12/26 05:13:15;;;;;;;28.25;13.35;;;;;;;-9.56;75.70;100387.97;3507617;79;20967;-72
2021/12/26 05:18:06;;;;;;;26.05;11.60;;;;;;;-9.65;75.62;100397.70;3504075;79;20903;-71
2021/12/26 05:22:59;;;;;;;28.27;13.08;;;;;;;-9.71;75.57;100392.46;3540458;79;21056;-72
2021/12/26 05:27:52;;;;;;;40.10;15.25;;;;;;;-9.79;75.58;100394.28;3478879;79;21166;-72
2021/12/26 05:32:45;;;;;;;38.67;15.23;;;;;;;-9.90;75.29;100397.07;3492058;79;20997;-72
2021/12/26 05:37:39;;;;;;;33.73;14.98;;;;;;;-9.96;75.23;100399.03;3469323;79;21588;-72
2021/12/26 05:47:45;;;;;;;42.43;16.15;;;;;;;-10.11;75.09;100411.42;3436659;81;21438;-73
2021/12/26 05:52:38;;;;;;;41.45;17.10;;;;;;;-10.16;75.05;100419.78;3411813;81;22086;-73
2021/12/26 05:57:31;;;;;;;59.30;20.37;;;;;;;-10.18;75.33;100420.02;3396394;81;20927;-72
2021/12/26 06:02:23;;;;;;;67.17;22.32;;;;;;;-10.21;75.22;100422.23;3405677;81;22054;-71
2021/12/26 06:07:15;;;;;;;43.15;19.48;;;;;;;-10.19;75.23;100418.27;3402390;81;21482;-73
2021/12/26 06:12:08;;;;;;;40.65;17.50;;;;;;;-10.20;75.29;100427.79;3415008;81;20932;-72
2021/12/26 06:17:01;;;;;;;41.30;16.15;;;;;;;-10.19;75.45;100425.42;3419469;83;21020;-73
2021/12/26 06:22:07;;;;;;;35.68;14.60;;;;;;;-10.16;75.53;100451.22;3160026;89;21590;-72
2021/12/26 06:27:04;;;;;;;38.90;16.00;;;;;;;-10.15;75.81;100456.77;3160894;89;21092;-73
2021/12/26 06:32:04;;;;;;;48.17;19.07;;;;;;;-10.11;75.93;100466.37;3146071;89;21570;-72
2021/12/26 06:37:15;;;;;;;43.17;18.30;;;;;;;-10.07;75.78;100470.94;3162623;88;21070;-72
2021/12/26 06:42:24;;;;;;;39.80;16.60;;;;;;;-10.00;75.77;100472.41;3186907;88;21187;-72
2021/12/26 06:47:36;;;;;;;36.28;14.83;;;;;;;-9.85;75.90;100479.27;3121588;90;21519;-72
2021/12/26 06:52:27;;;;;;;31.73;15.13;;;;;;;-9.64;76.05;100466.17;3047415;90;22081;-72
2021/12/26 06:57:18;;;;;;;42.17;14.38;;;;;;;-9.49;76.06;100465.81;3163686;86;21014;-72
2021/12/26 07:02:10;;;;;;;34.55;15.70;;;;;;;-9.39;75.98;100468.41;3201092;86;21570;-72
2021/12/26 07:07:11;;;;;;;31.95;14.25;;;;;;;-9.35;75.92;100462.93;3306645;83;21026;-72
2021/12/26 07:12:03;;;;;;;33.13;14.35;;;;;;;-9.32;75.78;100471.13;3299155;83;25006;-72
2021/12/26 07:16:56;;;;;;;31.17;15.60;;;;;;;-9.27;75.88;100467.02;3272370;83;20967;-72
2021/12/26 07:21:49;;;;;;;34.13;15.38;;;;;;;-9.18;76.02;100483.34;3331890;83;21472;-73
2021/12/26 07:26:40;;;;;;;41.13;16.42;;;;;;;-9.08;75.83;100478.40;3350306;83;20960;-73
2021/12/26 07:31:33;;;;;;;29.52;14.35;;;;;;;-8.90;76.27;100474.13;3339735;83;22035;-73
2021/12/26 07:36:26;;;;;;;41.18;16.60;;;;;;;-8.61;77.02;100474.59;3312696;83;21003;-72
2021/12/26 07:41:20;;;;;;;31.17;16.75;;;;;;;-8.31;77.04;100483.94;3299955;83;21003;-72
2021/12/26 07:46:12;;;;;;;39.05;17.02;;;;;;;-8.05;77.41;100497.58;3341348;82;20926;-73
2021/12/26 07:51:05;;;;;;;36.23;18.27;;;;;;;-7.76;77.51;100497.95;3347272;82;21011;-72
2021/12/26 07:56:04;;;;;;;31.87;14.00;;;;;;;-7.50;77.68;100508.12;3329507;82;21467;-72
2021/12/26 08:01:09;;;;;;;36.50;16.60;;;;;;;-7.31;77.61;100514.36;3307772;84;21042;-72
2021/12/26 08:06:19;;;;;;;28.38;15.48;;;;;;;-7.16;77.63;100525.74;3294544;84;21016;-73
2021/12/26 08:11:12;;;;;;;36.38;16.82;;;;;;;-7.00;77.76;100521.59;3305004;84;20968;-74
2021/12/26 08:16:04;;;;;;;34.13;15.78;;;;;;;-6.85;77.84;100528.30;3308010;84;21508;-72
2021/12/26 08:20:55;;;;;;;31.02;14.98;;;;;;;-6.73;77.78;100530.96;3276960;84;20978;-74
2021/12/26 08:25:46;;;;;;;35.00;17.05;;;;;;;-6.62;77.93;100537.78;3293753;84;21067;-74
2021/12/26 08:30:37;;;;;;;29.23;13.93;;;;;;;-6.40;78.17;100544.59;3308504;84;21049;-73
2021/12/26 08:35:28;;;;;;;26.40;14.53;;;;;;;-6.39;77.86;100542.19;3265356;83;21234;-74
2021/12/26 08:40:19;;;;;;;27.90;13.47;;;;;;;-6.28;77.94;100552.31;3370756;82;21526;-74
2021/12/26 08:45:11;;;;;;;33.20;15.45;;;;;;;-6.28;78.03;100544.33;3363239;81;20940;-74
2021/12/26 08:50:04;;;;;;;29.77;15.40;;;;;;;-6.19;78.12;100546.36;3402146;82;21030;-73
2021/12/26 08:54:55;;;;;;;30.45;12.55;;;;;;;-6.07;78.30;100550.63;3344202;82;21016;-74
2021/12/26 08:59:46;;;;;;;22.73;12.58;;;;;;;-5.94;78.39;100555.51;3298271;82;27400;-74
2021/12/26 09:04:39;;;;;;;22.87;10.93;;;;;;;-5.87;78.37;100555.59;3311492;83;21023;-74
2021/12/26 09:09:30;;;;;;;23.42;11.50;;;;;;;-5.72;78.46;100556.30;3343411;83;21214;-73
2021/12/26 09:14:22;;;;;;;21.55;11.68;;;;;;;-5.50;78.49;100552.17;3324229;82;21853;-74
2021/12/26 09:19:13;;;;;;;24.77;14.35;;;;;;;-5.28;78.61;100546.23;3362921;82;22595;-74
2021/12/26 09:24:05;;;;;;;24.90;11.33;;;;;;;-5.02;78.47;100540.24;3387103;82;21525;-73
2021/12/26 09:28:58;;;;;;;21.55;10.93;;;;;;;-4.99;78.16;100544.28;3360815;83;21010;-74
2021/12/26 09:33:49;;;;;;;23.40;12.63;;;;;;;-4.78;78.13;100530.17;3356812;82;20933;-73
2021/12/26 09:38:40;;;;;;;21.70;11.80;;;;;;;-4.57;78.34;100532.56;3351258;84;20992;-73
2021/12/26 09:43:31;;;;;;;25.82;12.53;;;;;;;-4.37;77.81;100528.95;3322008;83;26918;-74
2021/12/26 09:48:22;;;;;;;20.55;12.55;;;;;;;-4.31;77.48;100529.38;3314043;84;20909;-74
2021/12/26 09:53:14;;;;;;;22.00;12.18;;;;;;;-4.24;77.81;100535.05;3366677;84;20911;-73
2021/12/26 09:58:06;;;;;;;26.65;14.47;;;;;;;-4.35;77.18;100538.43;3392542;82;21511;-73
2021/12/26 10:03:24;;;;;;;20.10;11.53;;;;;;;-4.38;77.42;100547.11;3392972;83;20953;-74
2021/12/26 10:08:15;;;;;;;21.77;10.88;;;;;;;-4.38;77.21;100542.03;3396422;82;22405;-73
2021/12/26 10:13:05;;;;;;;25.05;13.72;;;;;;;-4.38;77.36;100543.66;3364634;83;21406;-72
2021/12/26 10:17:56;;;;;;;25.88;16.05;;;;;;;-4.49;77.52;100535.27;3313458;83;21000;-71
2021/12/26 10:22:47;;;;;;;19.87;12.23;;;;;;;-4.40;77.79;100537.20;3353093;83;21034;-72
2021/12/26 10:27:41;;;;;;;25.77;13.62;;;;;;;-4.28;77.64;100540.64;3357747;84;20883;-73
2021/12/26 10:32:41;;;;;;;31.57;15.85;;;;;;;-4.34;77.32;100546.95;3351969;83;21109;-72
2021/12/26 10:37:37;;;;;;;33.20;13.88;;;;;;;-4.33;77.59;100550.84;3391756;83;21077;-72
2021/12/26 10:42:33;;;;;;;25.90;13.78;;;;;;;-4.34;77.50;100539.34;3381526;84;20918;-72
2021/12/26 10:47:29;;;;;;;22.90;14.70;;;;;;;-4.23;77.69;100548.22;3410866;82;20956;-72
2021/12/26 10:52:28;;;;;;;25.65;14.78;;;;;;;-4.10;77.62;100551.66;3384097;83;20937;-70
2021/12/26 10:57:24;;;;;;;28.45;13.25;;;;;;;-3.88;77.84;100554.08;3336643;82;21168;-71
2021/12/26 11:02:25;;;;;;;23.32;13.55;;;;;;;-3.76;77.66;100551.55;3361796;81;21534;-73
2021/12/26 11:07:19;;;;;;;25.68;13.03;;;;;;;-3.56;77.80;100551.31;3341751;81;20954;-73
2021/12/26 11:12:10;;;;;;;26.70;14.40;;;;;;;-3.40;77.29;100550.70;3383889;82;21410;-72
2021/12/26 11:17:01;;;;;;;24.10;13.28;;;;;;;-3.36;77.44;100558.16;3348943;83;21012;-71
2021/12/26 11:21:51;;;;;;;20.50;12.78;;;;;;;-3.28;77.17;100559.59;3374202;81;27783;-72
2021/12/26 11:26:43;;;;;;;25.70;14.38;;;;;;;-3.25;77.14;100552.19;3343419;83;20987;-72
2021/12/26 11:31:34;;;;;;;22.22;12.40;;;;;;;-3.32;76.94;100551.27;3377873;83;20943;-73
2021/12/26 11:36:29;;;;;;;21.75;12.78;;;;;;;-3.35;76.90;100562.48;3370741;81;20957;-72
2021/12/26 11:41:48;;;;;;;23.47;13.95;;;;;;;-3.39;76.93;100555.42;3344173;81;20964;-72
2021/12/26 11:46:59;;;;;;;26.57;14.35;;;;;;;-3.43;77.04;100558.50;3387024;82;20947;-73
2021/12/26 11:52:45;;;;;;;23.77;12.85;;;;;;;-3.45;77.07;100556.76;3364972;84;21193;-72
2021/12/26 11:58:47;;;;;;;24.25;13.62;;;;;;;-3.47;77.24;100555.77;3394517;83;20922;-72
2021/12/26 12:03:38;;;;;;;21.15;13.68;;;;;;;-3.43;77.14;100555.96;3393736;82;20917;-72
2021/12/26 12:08:33;;;;;;;25.77;15.45;;;;;;;-3.48;77.36;100548.91;3331818;83;26991;-72
2021/12/26 12:13:50;;;;;;;24.23;13.85;;;;;;;-3.51;77.55;100547.41;3367130;82;21924;-73
2021/12/26 12:18:55;;;;;;;22.75;13.68;;;;;;;-3.56;77.51;100550.05;3371587;84;21467;-73
2021/12/26 12:24:09;;;;;;;19.42;11.38;;;;;;;-3.60;77.87;100546.77;3388532;83;21480;-73
2021/12/26 12:29:00;;;;;;;16.37;9.08;;;;;;;-3.61;77.55;100556.45;3406183;84;21045;-72
2021/12/26 12:34:13;;;;;;;13.28;8.13;;;;;;;-3.64;77.62;100556.23;3350156;83;21023;-71
2021/12/26 12:39:18;;;;;;;14.40;8.60;;;;;;;-3.68;77.55;100556.80;3369822;82;22203;-72
2021/12/26 12:44:34;;;;;;;14.53;9.90;;;;;;;-3.67;77.81;100557.28;3352305;82;20951;-72
2021/12/26 12:49:49;;;;;;;16.20;8.90;;;;;;;-3.60;78.05;100545.50;3356402;83;21418;-71
2021/12/26 12:54:48;;;;;;;14.10;9.05;;;;;;;-3.52;77.92;100549.48;3355960;83;21425;-72
2021/12/26 12:59:42;;;;;;;16.12;10.53;;;;;;;-3.50;77.70;100547.92;3387354;83;20987;-72
2021/12/26 13:04:45;;;;;;;16.90;10.45;;;;;;;-3.46;77.91;100549.89;3324745;83;21239;-71
2021/12/26 13:09:37;;;;;;;17.30;10.38;;;;;;;-3.42;77.85;100555.20;3351427;82;20946;-70
2021/12/26 13:14:42;;;;;;;19.90;11.38;;;;;;;-3.36;77.69;100547.62;3349124;82;20980;-71
2021/12/26 13:19:34;;;;;;;21.27;11.28;;;;;;;-3.24;77.81;100555.59;3387329;83;20970;-72
2021/12/26 13:24:39;;;;;;;21.42;11.68;;;;;;;-3.24;77.66;100555.20;3346673;83;20958;-71
2021/12/26 13:29:32;;;;;;;21.17;11.12;;;;;;;-3.30;77.95;100551.84;3365753;84;21412;-72
2021/12/26 13:34:25;;;;;;;23.70;12.50;;;;;;;-3.43;77.87;100567.04;3367257;83;20970;-72
2021/12/26 13:39:23;;;;;;;22.50;13.50;;;;;;;-3.56;77.93;100558.94;3382900;83;20994;-72
2021/12/26 13:44:17;;;;;;;25.72;13.48;;;;;;;-3.72;77.67;100556.97;3365240;82;21014;-72
2021/12/26 13:49:12;;;;;;;24.05;13.15;;;;;;;-3.86;77.76;100560.18;3361530;82;20958;-72
2021/12/26 13:54:09;;;;;;;21.35;10.20;;;;;;;-4.06;77.59;100565.06;3321368;83;21566;-72
2021/12/26 13:59:01;;;;;;;19.27;11.20;;;;;;;-4.26;77.76;100568.69;3347859;84;21532;-71
2021/12/26 14:03:53;;;;;;;24.15;11.08;;;;;;;-4.33;77.83;100579.16;3357282;83;20919;-72
2021/12/26 14:08:44;;;;;;;24.15;12.20;;;;;;;-4.45;77.73;100582.96;3350773;82;20975;-72
2021/12/26 14:13:51;;;;;;;21.00;11.43;;;;;;;-4.56;77.78;100588.87;3350534;82;20966;-72
2021/12/26 14:18:43;;;;;;;21.70;11.40;;;;;;;-4.79;77.47;100589.30;3378767;82;21229;-71
2021/12/26 14:23:40;;;;;;;22.13;11.22;;;;;;;-4.96;77.56;100587.13;3384957;83;21494;-71
2021/12/26 14:28:33;;;;;;;26.12;11.93;;;;;;;-5.15;77.34;100588.25;3380144;83;21320;-72
2021/12/26 14:33:31;;;;;;;22.42;11.60;;;;;;;-5.33;77.39;100593.14;3337643;83;21550;-72
2021/12/26 14:38:23;;;;;;;21.27;10.80;;;;;;;-5.52;77.57;100594.24;3327293;84;21463;-71
2021/12/26 14:43:15;;;;;;;24.70;15.48;;;;;;;-5.61;77.89;100589.72;3412581;84;21053;-72
2021/12/26 14:48:07;;;;;;;19.02;10.23;;;;;;;-5.68;77.91;100590.00;3378939;82;21508;-71
2021/12/26 14:53:01;;;;;;;25.65;13.03;;;;;;;-5.75;77.71;100590.76;3388933;83;20975;-71
2021/12/26 14:57:54;;;;;;;19.52;11.85;;;;;;;-5.86;77.43;100593.22;3350241;83;20935;-72
2021/12/26 15:02:52;;;;;;;27.00;11.22;;;;;;;-5.94;77.16;100601.44;3327469;84;21436;-71
2021/12/26 15:07:48;;;;;;;21.93;12.30;;;;;;;-6.16;76.01;100601.00;3378007;84;21046;-71
2021/12/26 15:12:53;;;;;;;21.55;11.53;;;;;;;-6.28;76.31;100613.91;3362529;83;20961;-72
2021/12/26 15:18:11;;;;;;;30.50;15.08;;;;;;;-6.38;75.56;100606.35;3322127;84;20965;-71
2021/12/26 15:23:35;;;;;;;37.17;19.98;;;;;;;-6.56;75.88;100609.13;3413679;83;21061;-72
2021/12/26 15:28:49;;;;;;;41.92;21.48;;;;;;;-6.70;75.97;100619.73;3384517;83;20949;-71
2021/12/26 15:33:45;;;;;;;41.50;19.80;;;;;;;-6.82;76.50;100614.91;3306062;84;20945;-72
2021/12/26 15:38:38;;;;;;;43.52;20.08;;;;;;;-6.95;76.93;100622.71;3383442;84;20930;-72
2021/12/26 15:43:31;;;;;;;40.55;21.80;;;;;;;-7.06;76.85;100627.24;3377209;84;20943;-71
2021/12/26 15:48:23;;;;;;;40.98;19.87;;;;;;;-7.16;76.64;100639.84;3372312;82;20951;-72
2021/12/26 15:53:15;;;;;;;38.48;20.08;;;;;;;-7.29;76.00;100637.52;3366876;85;21071;-71
2021/12/26 15:58:07;;;;;;;36.13;18.27;;;;;;;-7.36;76.23;100645.31;3298722;84;21050;-70
2021/12/26 16:02:59;;;;;;;44.42;20.48;;;;;;;-7.47;75.76;100652.34;3300477;85;20987;-71
2021/12/26 16:07:51;;;;;;;43.55;18.35;;;;;;;-7.57;75.87;100651.02;3367695;83;20935;-71
2021/12/26 16:12:43;;;;;;;44.60;18.35;;;;;;;-7.66;76.07;100649.45;3315368;84;21516;-71
2021/12/26 16:17:35;;;;;;;38.13;16.85;;;;;;;-7.78;76.10;100647.13;3299218;84;21002;-71
2021/12/26 16:22:26;;;;;;;35.35;17.05;;;;;;;-7.93;75.53;100650.42;3326151;85;21508;-72
2021/12/26 16:27:18;;;;;;;40.48;17.12;;;;;;;-8.05;75.87;100652.77;3357854;85;20944;-70
2021/12/26 16:32:11;;;;;;;30.48;15.25;;;;;;;-8.16;75.57;100658.84;3322842;84;21513;-71
2021/12/26 16:42:09;;;;;;;35.35;16.37;;;;;;;-8.39;75.72;100668.98;3730867;76;22926;-72
2021/12/26 16:47:00;;;;;;;37.15;17.32;;;;;;;-8.53;75.79;100674.09;3640044;77;22089;-73
2021/12/26 16:51:51;;;;;;;38.70;17.62;;;;;;;-8.68;75.66;100691.19;3642218;78;20918;-72
2021/12/26 16:56:43;;;;;;;48.58;22.60;;;;;;;-8.72;75.65;100702.13;3601548;77;20907;-73
2021/12/26 17:01:34;;;;;;;40.65;21.60;;;;;;;-8.78;75.89;100702.44;3594054;78;24805;-72
2021/12/26 17:06:26;;;;;;;35.35;19.23;;;;;;;-8.90;75.26;100707.21;3559407;78;20962;-72
2021/12/26 17:11:17;;;;;;;46.10;22.62;;;;;;;-9.02;74.95;100712.36;3626918;78;21009;-72
2021/12/26 17:16:08;;;;;;;59.23;28.15;;;;;;;-9.18;75.06;100702.84;3566499;77;20947;-72
2021/12/26 17:20:59;;;;;;;53.95;24.55;;;;;;;-9.20;75.71;100702.69;3555550;78;21108;-71
2021/12/26 17:25:50;;;;;;;52.83;24.67;;;;;;;-9.22;75.81;100710.09;3603233;77;20967;-72
2021/12/26 17:30:41;;;;;;;48.50;24.45;;;;;;;-9.26;75.47;100715.59;3607348;77;20923;-73
2021/12/26 17:35:35;;;;;;;75.20;34.30;;;;;;;-9.35;75.13;100708.77;3616494;78;21170;-71
2021/12/26 17:40:27;;;;;;;71.00;32.23;;;;;;;-9.44;75.49;100709.69;3618468;77;20990;-71
2021/12/26 17:45:18;;;;;;;91.53;41.35;;;;;;;-9.51;75.22;100712.36;3537130;77;20989;-71
2021/12/26 17:50:11;;;;;;;81.70;41.42;;;;;;;-9.61;75.15;100714.34;3636540;78;24914;-71
2021/12/26 17:55:03;;;;;;;94.50;40.45;;;;;;;-9.67;75.13;100722.95;3641016;78;21018;-71
2021/12/26 17:59:54;;;;;;;84.10;39.78;;;;;;;-9.76;75.12;100717.91;3567713;77;21646;-71
2021/12/26 18:04:45;;;;;;;87.82;39.70;;;;;;;-9.79;74.97;100733.96;3586903;77;20986;-71
2021/12/26 18:09:36;;;;;;;94.00;41.92;;;;;;;-9.89;74.57;100727.50;3582140;77;20939;-71
2021/12/26 18:14:28;;;;;;;88.10;38.55;;;;;;;-9.95;74.73;100735.72;3591782;78;25399;-72
2021/12/26 18:19:19;;;;;;;89.00;37.15;;;;;;;-10.00;74.95;100737.77;3536399;77;20963;-71
2021/12/26 18:24:10;;;;;;;82.85;41.02;;;;;;;-10.08;74.74;100729.48;3612038;77;21908;-70
2021/12/26 18:29:03;;;;;;;88.27;40.78;;;;;;;-10.15;74.83;100737.16;3560295;78;20915;-71
2021/12/26 18:33:57;;;;;;;83.05;39.00;;;;;;;-10.22;74.66;100742.32;3535817;78;20946;-72
2021/12/26 18:38:49;;;;;;;93.80;39.88;;;;;;;-10.27;74.44;100751.91;3599656;77;21488;-71
2021/12/26 18:43:41;;;;;;;82.42;39.05;;;;;;;-10.33;74.46;100741.66;3577285;77;20997;-72
2021/12/26 18:48:33;;;;;;;87.27;38.63;;;;;;;-10.30;74.42;100757.91;3594642;78;21759;-70
2021/12/26 18:53:25;;;;;;;93.12;39.45;;;;;;;-10.26;74.55;100757.84;3615601;77;20990;-70
2021/12/26 18:58:17;;;;;;;84.13;41.23;;;;;;;-10.22;74.58;100757.41;3596081;78;20975;-69
2021/12/26 19:03:10;;;;;;;91.42;39.48;;;;;;;-10.19;74.08;100758.59;3600417;77;21002;-70
2021/12/26 19:08:02;;;;;;;97.57;40.20;;;;;;;-10.12;74.22;100764.22;3600852;78;20942;-70
2021/12/26 19:12:54;;;;;;;83.80;41.42;;;;;;;-10.09;73.94;100759.13;3569593;77;21860;-70
2021/12/26 19:17:46;;;;;;;90.62;41.85;;;;;;;-10.10;73.90;100756.11;3558834;77;20954;-71
2021/12/26 19:22:39;;;;;;;87.82;40.00;;;;;;;-10.08;73.59;100752.12;3627782;77;20924;-70
2021/12/26 19:27:31;;;;;;;95.45;43.28;;;;;;;-10.11;73.39;100748.03;3587696;77;21515;-70
2021/12/26 19:32:23;;;;;;;94.28;44.98;;;;;;;-10.04;73.67;100754.19;3601065;77;20943;-71
2021/12/26 19:37:15;;;;;;;97.12;44.77;;;;;;;-10.06;73.15;100760.70;3550256;77;21012;-70
2021/12/26 19:42:11;;;;;;;112.62;49.98;;;;;;;-10.09;73.07;100769.19;3614096;77;22370;-70
2021/12/26 19:47:04;;;;;;;116.20;53.10;;;;;;;-10.07;73.39;100773.12;3629670;77;22029;-71
2021/12/26 19:51:56;;;;;;;124.92;52.17;;;;;;;-10.08;73.02;100780.16;3546201;78;20961;-69
2021/12/26 19:56:48;;;;;;;111.17;49.90;;;;;;;-10.13;72.56;100773.41;3627806;77;20888;-70
2021/12/26 20:01:41;;;;;;;111.65;47.90;;;;;;;-10.20;72.15;100776.05;3601179;78;21563;-70
2021/12/26 20:06:33;;;;;;;102.15;47.67;;;;;;;-10.21;72.52;100774.25;3632598;77;20979;-70
2021/12/26 20:11:25;;;;;;;94.75;45.63;;;;;;;-10.21;72.47;100766.70;3636219;77;20943;-69
2021/12/26 20:16:19;;;;;;;90.55;43.52;;;;;;;-10.27;72.55;100777.42;3559133;77;21019;-70
2021/12/26 20:21:14;;;;;;;89.97;41.95;;;;;;;-10.27;72.20;100784.59;3566692;77;20959;-71
2021/12/26 20:26:10;;;;;;;93.22;41.40;;;;;;;-10.37;72.08;100780.31;3555952;77;21226;-70
2021/12/26 20:31:05;;;;;;;94.80;45.50;;;;;;;-10.42;71.90;100772.67;3610121;76;21065;-69
2021/12/26 20:35:58;;;;;;;99.05;44.33;;;;;;;-10.50;71.69;100773.52;3544584;77;20951;-70
2021/12/26 20:40:50;;;;;;;92.90;44.60;;;;;;;-10.57;71.22;100780.83;3554668;77;20927;-69
2021/12/26 20:45:44;;;;;;;89.58;40.83;;;;;;;-10.70;71.10;100776.91;3592341;77;21001;-70
2021/12/26 20:50:37;;;;;;;87.22;42.73;;;;;;;-10.80;71.18;100772.55;3613802;77;21293;-70
2021/12/26 20:55:29;;;;;;;99.87;48.78;;;;;;;-10.88;70.94;100776.80;3629103;77;21460;-69
2021/12/26 21:00:25;;;;;;;109.35;51.55;;;;;;;-11.03;70.82;100781.14;3600118;76;20990;-70
2021/12/26 21:05:19;;;;;;;148.93;67.73;;;;;;;-11.04;71.14;100777.22;3637572;77;21476;-69
2021/12/26 21:10:12;;;;;;;145.17;68.25;;;;;;;-11.08;71.24;100772.63;3610294;77;20983;-70
2021/12/26 21:15:06;;;;;;;150.30;67.47;;;;;;;-11.07;71.15;100774.00;3601167;77;20994;-70
2021/12/26 21:19:58;;;;;;;148.78;66.47;;;;;;;-11.07;71.17;100770.23;3570028;77;21003;-70
2021/12/26 21:24:50;;;;;;;148.32;65.83;;;;;;;-11.17;70.59;100767.16;3633369;77;20931;-70
2021/12/26 21:29:43;;;;;;;133.75;64.60;;;;;;;-11.23;70.66;100769.05;3586155;77;20967;-70
2021/12/26 21:34:36;;;;;;;134.72;64.27;;;;;;;-11.23;70.81;100770.30;3617064;76;20895;-69
2021/12/26 21:39:29;;;;;;;121.45;58.70;;;;;;;-11.32;70.43;100774.00;3614017;76;21469;-70
2021/12/26 21:44:20;;;;;;;133.63;61.15;;;;;;;-11.39;70.48;100776.60;3610615;77;21192;-70
2021/12/26 21:49:13;;;;;;;121.70;58.55;;;;;;;-11.40;70.64;100771.42;3632118;77;21006;-70
2021/12/26 21:54:07;;;;;;;124.33;52.03;;;;;;;-11.41;70.67;100779.66;3562412;77;21475;-69
2021/12/26 21:58:59;;;;;;;100.30;47.90;;;;;;;-11.43;70.87;100786.15;3615089;77;20896;-70
2021/12/26 22:03:51;;;;;;;104.23;48.78;;;;;;;-11.45;70.71;100787.61;3579468;77;21674;-70
2021/12/26 22:08:43;;;;;;;85.47;41.58;;;;;;;-11.42;71.01;100796.73;3593120;77;21001;-70
2021/12/26 22:13:36;;;;;;;95.95;49.18;;;;;;;-11.43;70.98;100797.06;3575097;77;20986;-70
2021/12/26 22:18:28;;;;;;;94.75;45.78;;;;;;;-11.48;70.87;100802.34;3600899;77;20935;-70
2021/12/26 22:23:20;;;;;;;96.40;41.80;;;;;;;-11.43;71.16;100792.05;3562595;77;20965;-71
2021/12/26 22:28:13;;;;;;;88.72;44.03;;;;;;;-11.45;70.76;100805.18;3601125;77;21098;-70